Beaver Island, Michigan
Current Conditions -  °F | °C
As of 11:55 AM on Friday 24 Oct 2014 (Local Time) from KSJX Reporting Station
Overcast Overcast  
Wind Chill: 53°   Ceiling: 1300
Heat Index: 53°   Visibility: 10mi
Dew Point: 50°   Wind: 7mph
Humidity: 89%   Direction: 230°SW
Pressure: 29.99"   Gusts: NA
Location:  45.64°N, 85.52°W
Report Text: KSJX 241555Z AUTO 23006KT 10SM SCT007 OVC013 12/10 A2999 RMK AO2 T01180100
Loading
Personal Weather Stations






























Interactive Weather Map
Tropical Storm Tracking
New forecast layout! Learn more

10-Day Weather Forecast

Advertisements
Track Severe Weather on mobile